sensor_id;sensor_type;location;lat;lon;timestamp;P1;durP1;ratioP1;P2;durP2;ratioP2
22113;SDS011;11223;49.968;9.062;2022-09-20T00:01:10;3.53;;;1.57;;
22113;SDS011;11223;49.968;9.062;2022-09-20T00:03:48;1.70;;;1.60;;
22113;SDS011;11223;49.968;9.062;2022-09-20T00:06:16;2.78;;;1.60;;
22113;SDS011;11223;49.968;9.062;2022-09-20T00:08:44;2.90;;;1.73;;
22113;SDS011;11223;49.968;9.062;2022-09-20T00:11:14;2.50;;;2.17;;
22113;SDS011;11223;49.968;9.062;2022-09-20T00:13:42;2.33;;;1.50;;
22113;SDS011;11223;49.968;9.062;2022-09-20T00:16:11;2.30;;;1.40;;
22113;SDS011;11223;49.968;9.062;2022-09-20T00:18:38;1.90;;;1.55;;
22113;SDS011;11223;49.968;9.062;2022-09-20T00:21:04;1.60;;;1.50;;
22113;SDS011;11223;49.968;9.062;2022-09-20T00:23:30;2.47;;;1.90;;
22113;SDS011;11223;49.968;9.062;2022-09-20T00:25:58;1.67;;;1.55;;
22113;SDS011;11223;49.968;9.062;2022-09-20T00:28:25;2.13;;;1.92;;
22113;SDS011;11223;49.968;9.062;2022-09-20T00:30:52;1.45;;;1.20;;
22113;SDS011;11223;49.968;9.062;2022-09-20T00:33:19;2.45;;;1.55;;
22113;SDS011;11223;49.968;9.062;2022-09-20T00:35:46;1.92;;;1.60;;
22113;SDS011;11223;49.968;9.062;2022-09-20T00:38:12;3.03;;;1.80;;
22113;SDS011;11223;49.968;9.062;2022-09-20T00:40:39;1.85;;;1.45;;
22113;SDS011;11223;49.968;9.062;2022-09-20T00:43:06;4.03;;;1.70;;
22113;SDS011;11223;49.968;9.062;2022-09-20T00:45:31;1.63;;;1.50;;
22113;SDS011;11223;49.968;9.062;2022-09-20T00:53:13;1.80;;;1.55;;
22113;SDS011;11223;49.968;9.062;2022-09-20T00:55:51;2.05;;;1.60;;
22113;SDS011;11223;49.968;9.062;2022-09-20T00:58:19;3.28;;;1.63;;
22113;SDS011;11223;49.968;9.062;2022-09-20T01:00:47;6.60;;;1.88;;
22113;SDS011;11223;49.968;9.062;2022-09-20T01:03:15;3.38;;;1.90;;
22113;SDS011;11223;49.968;9.062;2022-09-20T01:05:44;2.50;;;1.42;;
22113;SDS011;11223;49.968;9.062;2022-09-20T01:08:10;2.20;;;1.40;;
22113;SDS011;11223;49.968;9.062;2022-09-20T01:10:36;3.47;;;2.10;;
22113;SDS011;11223;49.968;9.062;2022-09-20T01:13:02;2.60;;;1.50;;
22113;SDS011;11223;49.968;9.062;2022-09-20T01:15:29;4.32;;;1.40;;
22113;SDS011;11223;49.968;9.062;2022-09-20T01:17:56;3.08;;;1.55;;
22113;SDS011;11223;49.968;9.062;2022-09-20T01:20:28;2.15;;;1.90;;
22113;SDS011;11223;49.968;9.062;2022-09-20T01:28:40;2.65;;;1.30;;
22113;SDS011;11223;49.968;9.062;2022-09-20T01:33:52;2.17;;;1.88;;
22113;SDS011;11223;49.968;9.062;2022-09-20T01:36:30;2.35;;;1.60;;
22113;SDS011;11223;49.968;9.062;2022-09-20T01:42:11;1.70;;;1.60;;
22113;SDS011;11223;49.968;9.062;2022-09-20T01:44:50;2.65;;;2.00;;
22113;SDS011;11223;49.968;9.062;2022-09-20T02:07:11;5.20;;;1.88;;
22113;SDS011;11223;49.968;9.062;2022-09-20T02:09:59;1.95;;;1.50;;
22113;SDS011;11223;49.968;9.062;2022-09-20T02:12:52;3.58;;;2.58;;
22113;SDS011;11223;49.968;9.062;2022-09-20T02:24:28;2.28;;;2.00;;
22113;SDS011;11223;49.968;9.062;2022-09-20T02:27:01;2.97;;;2.17;;
22113;SDS011;11223;49.968;9.062;2022-09-20T02:30:02;2.47;;;1.70;;
22113;SDS011;11223;49.968;9.062;2022-09-20T02:32:38;4.70;;;2.08;;
22113;SDS011;11223;49.968;9.062;2022-09-20T02:38:29;2.30;;;2.10;;
22113;SDS011;11223;49.968;9.062;2022-09-20T02:44:32;3.65;;;1.73;;
22113;SDS011;11223;49.968;9.062;2022-09-20T02:47:05;2.08;;;1.85;;
22113;SDS011;11223;49.968;9.062;2022-09-20T02:49:57;2.15;;;2.00;;
22113;SDS011;11223;49.968;9.062;2022-09-20T02:55:49;4.15;;;2.08;;
22113;SDS011;11223;49.968;9.062;2022-09-20T03:01:01;2.13;;;1.90;;
22113;SDS011;11223;49.968;9.062;2022-09-20T03:04:01;5.97;;;2.00;;
22113;SDS011;11223;49.968;9.062;2022-09-20T03:06:49;2.42;;;1.88;;
22113;SDS011;11223;49.968;9.062;2022-09-20T03:09:24;3.15;;;1.95;;
22113;SDS011;11223;49.968;9.062;2022-09-20T03:12:13;2.65;;;2.05;;
22113;SDS011;11223;49.968;9.062;2022-09-20T03:20:42;3.65;;;1.60;;
22113;SDS011;11223;49.968;9.062;2022-09-20T03:26:15;1.52;;;1.42;;
22113;SDS011;11223;49.968;9.062;2022-09-20T03:29:04;2.03;;;1.83;;
22113;SDS011;11223;49.968;9.062;2022-09-20T03:31:47;2.35;;;1.95;;
22113;SDS011;11223;49.968;9.062;2022-09-20T03:42:25;1.40;;;1.10;;
22113;SDS011;11223;49.968;9.062;2022-09-20T04:07:21;1.83;;;1.73;;
22113;SDS011;11223;49.968;9.062;2022-09-20T04:21:30;2.50;;;1.75;;
22113;SDS011;11223;49.968;9.062;2022-09-20T04:29:46;1.80;;;1.55;;
22113;SDS011;11223;49.968;9.062;2022-09-20T04:32:38;2.10;;;1.48;;
22113;SDS011;11223;49.968;9.062;2022-09-20T04:38:10;3.88;;;2.30;;
22113;SDS011;11223;49.968;9.062;2022-09-20T04:40:52;1.83;;;1.20;;
22113;SDS011;11223;49.968;9.062;2022-09-20T04:52:45;2.08;;;1.92;;
22113;SDS011;11223;49.968;9.062;2022-09-20T05:28:27;1.83;;;1.73;;
22113;SDS011;11223;49.968;9.062;2022-09-20T05:30:58;2.42;;;1.70;;
22113;SDS011;11223;49.968;9.062;2022-09-20T05:39:36;3.08;;;1.60;;
22113;SDS011;11223;49.968;9.062;2022-09-20T05:53:23;7.80;;;2.85;;
22113;SDS011;11223;49.968;9.062;2022-09-20T05:59:24;3.65;;;2.47;;
22113;SDS011;11223;49.968;9.062;2022-09-20T06:02:08;3.30;;;3.10;;
22113;SDS011;11223;49.968;9.062;2022-09-20T06:04:54;6.63;;;3.47;;
22113;SDS011;11223;49.968;9.062;2022-09-20T06:10:12;3.50;;;2.90;;
22113;SDS011;11223;49.968;9.062;2022-09-20T06:16:20;5.47;;;3.78;;
22113;SDS011;11223;49.968;9.062;2022-09-20T06:18:30;2.80;;;2.60;;
22113;SDS011;11223;49.968;9.062;2022-09-20T06:21:12;3.75;;;2.55;;
22113;SDS011;11223;49.968;9.062;2022-09-20T06:23:56;3.10;;;2.80;;
22113;SDS011;11223;49.968;9.062;2022-09-20T06:26:26;3.63;;;2.65;;
22113;SDS011;11223;49.968;9.062;2022-09-20T06:28:58;3.45;;;3.13;;
22113;SDS011;11223;49.968;9.062;2022-09-20T06:31:28;6.25;;;3.20;;
22113;SDS011;11223;49.968;9.062;2022-09-20T06:33:56;4.67;;;2.97;;
22113;SDS011;11223;49.968;9.062;2022-09-20T06:36:31;4.47;;;3.00;;
22113;SDS011;11223;49.968;9.062;2022-09-20T06:42:23;3.85;;;3.55;;
22113;SDS011;11223;49.968;9.062;2022-09-20T06:44:50;3.35;;;3.05;;
22113;SDS011;11223;49.968;9.062;2022-09-20T06:47:15;4.33;;;3.00;;
22113;SDS011;11223;49.968;9.062;2022-09-20T06:49:42;5.10;;;3.80;;
22113;SDS011;11223;49.968;9.062;2022-09-20T06:52:11;4.30;;;3.90;;
22113;SDS011;11223;49.968;9.062;2022-09-20T06:54:39;4.07;;;3.45;;
22113;SDS011;11223;49.968;9.062;2022-09-20T06:57:11;4.10;;;3.70;;
22113;SDS011;11223;49.968;9.062;2022-09-20T06:59:39;4.80;;;3.70;;
22113;SDS011;11223;49.968;9.062;2022-09-20T07:02:05;3.17;;;2.70;;
22113;SDS011;11223;49.968;9.062;2022-09-20T07:04:32;6.45;;;3.42;;
22113;SDS011;11223;49.968;9.062;2022-09-20T07:07:01;5.85;;;3.75;;
22113;SDS011;11223;49.968;9.062;2022-09-20T07:09:28;4.90;;;3.92;;
22113;SDS011;11223;49.968;9.062;2022-09-20T07:11:54;4.37;;;3.77;;
22113;SDS011;11223;49.968;9.062;2022-09-20T07:14:23;5.35;;;4.50;;
22113;SDS011;11223;49.968;9.062;2022-09-20T07:16:50;6.40;;;4.05;;
22113;SDS011;11223;49.968;9.062;2022-09-20T07:19:16;12.10;;;3.80;;
22113;SDS011;11223;49.968;9.062;2022-09-20T07:21:41;6.10;;;3.93;;
22113;SDS011;11223;49.968;9.062;2022-09-20T07:24:07;4.70;;;4.23;;
22113;SDS011;11223;49.968;9.062;2022-09-20T07:26:32;5.50;;;3.93;;
22113;SDS011;11223;49.968;9.062;2022-09-20T07:28:58;5.13;;;4.47;;
22113;SDS011;11223;49.968;9.062;2022-09-20T07:31:25;6.80;;;4.70;;
22113;SDS011;11223;49.968;9.062;2022-09-20T07:33:52;3.95;;;3.50;;
22113;SDS011;11223;49.968;9.062;2022-09-20T07:36:18;4.70;;;3.53;;
22113;SDS011;11223;49.968;9.062;2022-09-20T07:38:47;7.57;;;4.33;;
22113;SDS011;11223;49.968;9.062;2022-09-20T07:41:14;5.95;;;4.32;;
22113;SDS011;11223;49.968;9.062;2022-09-20T07:43:42;5.50;;;4.25;;
22113;SDS011;11223;49.968;9.062;2022-09-20T07:46:08;5.57;;;4.27;;
22113;SDS011;11223;49.968;9.062;2022-09-20T07:48:35;4.15;;;3.75;;
22113;SDS011;11223;49.968;9.062;2022-09-20T07:51:06;5.68;;;4.50;;
22113;SDS011;11223;49.968;9.062;2022-09-20T07:53:33;4.55;;;3.80;;
22113;SDS011;11223;49.968;9.062;2022-09-20T07:55:59;7.63;;;4.70;;
22113;SDS011;11223;49.968;9.062;2022-09-20T07:58:30;5.40;;;4.45;;
22113;SDS011;11223;49.968;9.062;2022-09-20T08:00:58;9.40;;;4.68;;
22113;SDS011;11223;49.968;9.062;2022-09-20T08:03:25;3.90;;;3.45;;
22113;SDS011;11223;49.968;9.062;2022-09-20T08:06:00;5.10;;;4.60;;
22113;SDS011;11223;49.968;9.062;2022-09-20T08:08:26;5.07;;;4.68;;
22113;SDS011;11223;49.968;9.062;2022-09-20T08:11:00;6.53;;;4.10;;
22113;SDS011;11223;49.968;9.062;2022-09-20T08:13:31;4.65;;;4.25;;
22113;SDS011;11223;49.968;9.062;2022-09-20T08:16:01;6.20;;;4.43;;
22113;SDS011;11223;49.968;9.062;2022-09-20T08:18:29;6.05;;;4.78;;
22113;SDS011;11223;49.968;9.062;2022-09-20T08:20:55;4.40;;;4.00;;
22113;SDS011;11223;49.968;9.062;2022-09-20T08:23:20;4.23;;;3.87;;
22113;SDS011;11223;49.968;9.062;2022-09-20T08:25:46;6.20;;;4.47;;
22113;SDS011;11223;49.968;9.062;2022-09-20T08:28:13;4.40;;;3.40;;
22113;SDS011;11223;49.968;9.062;2022-09-20T08:30:39;4.93;;;4.47;;
22113;SDS011;11223;49.968;9.062;2022-09-20T08:33:04;4.40;;;3.47;;
22113;SDS011;11223;49.968;9.062;2022-09-20T08:35:33;5.65;;;4.63;;
22113;SDS011;11223;49.968;9.062;2022-09-20T08:37:59;4.75;;;3.75;;
22113;SDS011;11223;49.968;9.062;2022-09-20T08:40:25;4.20;;;3.90;;
22113;SDS011;11223;49.968;9.062;2022-09-20T08:42:53;6.10;;;4.50;;
22113;SDS011;11223;49.968;9.062;2022-09-20T08:45:21;4.72;;;4.25;;
22113;SDS011;11223;49.968;9.062;2022-09-20T08:47:49;4.15;;;3.75;;
22113;SDS011;11223;49.968;9.062;2022-09-20T08:50:19;5.25;;;4.30;;
22113;SDS011;11223;49.968;9.062;2022-09-20T08:52:45;6.57;;;4.13;;
22113;SDS011;11223;49.968;9.062;2022-09-20T08:55:17;4.22;;;3.83;;
22113;SDS011;11223;49.968;9.062;2022-09-20T08:57:48;8.73;;;5.05;;
22113;SDS011;11223;49.968;9.062;2022-09-20T09:00:17;4.40;;;3.50;;
22113;SDS011;11223;49.968;9.062;2022-09-20T09:02:44;6.18;;;3.92;;
22113;SDS011;11223;49.968;9.062;2022-09-20T09:05:31;4.50;;;3.97;;
22113;SDS011;11223;49.968;9.062;2022-09-20T09:07:57;5.85;;;3.95;;
22113;SDS011;11223;49.968;9.062;2022-09-20T09:10:28;4.50;;;4.10;;
22113;SDS011;11223;49.968;9.062;2022-09-20T09:13:00;6.03;;;3.90;;
22113;SDS011;11223;49.968;9.062;2022-09-20T09:15:27;4.85;;;3.15;;
22113;SDS011;11223;49.968;9.062;2022-09-20T09:17:56;3.92;;;3.03;;
22113;SDS011;11223;49.968;9.062;2022-09-20T09:20:22;3.10;;;2.73;;
22113;SDS011;11223;49.968;9.062;2022-09-20T09:23:02;3.88;;;2.72;;
22113;SDS011;11223;49.968;9.062;2022-09-20T09:25:38;4.60;;;3.90;;
22113;SDS011;11223;49.968;9.062;2022-09-20T09:30:34;6.18;;;3.45;;
22113;SDS011;11223;49.968;9.062;2022-09-20T09:38:29;2.60;;;2.40;;
22113;SDS011;11223;49.968;9.062;2022-09-20T09:41:01;7.85;;;3.15;;
22113;SDS011;11223;49.968;9.062;2022-09-20T09:43:33;6.85;;;3.35;;
22113;SDS011;11223;49.968;9.062;2022-09-20T09:46:17;5.65;;;3.22;;
22113;SDS011;11223;49.968;9.062;2022-09-20T09:51:28;3.50;;;3.20;;
22113;SDS011;11223;49.968;9.062;2022-09-20T09:53:55;3.40;;;2.70;;
22113;SDS011;11223;49.968;9.062;2022-09-20T09:59:15;3.92;;;3.35;;
22113;SDS011;11223;49.968;9.062;2022-09-20T10:01:57;3.90;;;3.20;;
22113;SDS011;11223;49.968;9.062;2022-09-20T10:07:35;6.28;;;3.13;;
22113;SDS011;11223;49.968;9.062;2022-09-20T10:15:49;3.40;;;2.60;;
22113;SDS011;11223;49.968;9.062;2022-09-20T10:42:51;5.90;;;1.55;;
22113;SDS011;11223;49.968;9.062;2022-09-20T10:45:44;6.25;;;1.90;;
22113;SDS011;11223;49.968;9.062;2022-09-20T10:48:30;2.92;;;1.90;;
22113;SDS011;11223;49.968;9.062;2022-09-20T10:51:03;3.13;;;2.15;;
22113;SDS011;11223;49.968;9.062;2022-09-20T11:07:37;2.25;;;1.20;;
22113;SDS011;11223;49.968;9.062;2022-09-20T11:09:59;2.97;;;1.42;;
22113;SDS011;11223;49.968;9.062;2022-09-20T11:17:45;1.52;;;1.30;;
22113;SDS011;11223;49.968;9.062;2022-09-20T11:20:25;3.95;;;1.48;;
22113;SDS011;11223;49.968;9.062;2022-09-20T11:22:59;1.70;;;1.60;;
22113;SDS011;11223;49.968;9.062;2022-09-20T11:28:21;2.85;;;1.58;;
22113;SDS011;11223;49.968;9.062;2022-09-20T11:33:29;3.45;;;1.95;;
22113;SDS011;11223;49.968;9.062;2022-09-20T11:36:01;6.68;;;2.60;;
22113;SDS011;11223;49.968;9.062;2022-09-20T11:41:45;2.40;;;1.27;;
22113;SDS011;11223;49.968;9.062;2022-09-20T11:44:14;2.03;;;1.35;;
22113;SDS011;11223;49.968;9.062;2022-09-20T11:46:49;3.33;;;1.80;;
22113;SDS011;11223;49.968;9.062;2022-09-20T11:49:21;3.47;;;1.27;;
22113;SDS011;11223;49.968;9.062;2022-09-20T11:54:57;2.60;;;1.05;;
22113;SDS011;11223;49.968;9.062;2022-09-20T11:57:41;1.85;;;1.13;;
22113;SDS011;11223;49.968;9.062;2022-09-20T12:00:06;3.30;;;1.20;;
22113;SDS011;11223;49.968;9.062;2022-09-20T12:02:36;2.03;;;1.58;;
22113;SDS011;11223;49.968;9.062;2022-09-20T12:07:56;2.78;;;2.13;;
22113;SDS011;11223;49.968;9.062;2022-09-20T12:10:24;2.58;;;1.05;;
22113;SDS011;11223;49.968;9.062;2022-09-20T12:15:31;1.85;;;1.40;;
22113;SDS011;11223;49.968;9.062;2022-09-20T12:18:07;3.65;;;1.35;;
22113;SDS011;11223;49.968;9.062;2022-09-20T12:20:55;2.53;;;1.45;;
22113;SDS011;11223;49.968;9.062;2022-09-20T12:36:29;3.08;;;1.40;;
22113;SDS011;11223;49.968;9.062;2022-09-20T12:41:46;1.88;;;1.30;;
22113;SDS011;11223;49.968;9.062;2022-09-20T12:49:28;1.58;;;1.40;;
22113;SDS011;11223;49.968;9.062;2022-09-20T13:06:21;1.65;;;1.10;;
22113;SDS011;11223;49.968;9.062;2022-09-20T13:14:11;1.15;;;1.05;;
22113;SDS011;11223;49.968;9.062;2022-09-20T13:19:18;2.50;;;0.75;;
22113;SDS011;11223;49.968;9.062;2022-09-20T13:22:01;1.88;;;1.30;;
22113;SDS011;11223;49.968;9.062;2022-09-20T13:24:36;1.42;;;0.82;;
22113;SDS011;11223;49.968;9.062;2022-09-20T13:27:04;1.38;;;1.15;;
22113;SDS011;11223;49.968;9.062;2022-09-20T13:29:43;3.13;;;1.05;;
22113;SDS011;11223;49.968;9.062;2022-09-20T13:32:26;2.50;;;1.20;;
22113;SDS011;11223;49.968;9.062;2022-09-20T13:37:58;2.05;;;0.70;;
22113;SDS011;11223;49.968;9.062;2022-09-20T13:40:25;1.50;;;0.80;;
22113;SDS011;11223;49.968;9.062;2022-09-20T13:42:55;1.50;;;1.40;;
22113;SDS011;11223;49.968;9.062;2022-09-20T13:45:24;1.48;;;0.85;;
22113;SDS011;11223;49.968;9.062;2022-09-20T13:47:51;0.70;;;0.65;;
22113;SDS011;11223;49.968;9.062;2022-09-20T13:50:23;1.25;;;0.95;;
22113;SDS011;11223;49.968;9.062;2022-09-20T13:53:00;0.90;;;0.88;;
22113;SDS011;11223;49.968;9.062;2022-09-20T13:55:38;2.10;;;1.20;;
22113;SDS011;11223;49.968;9.062;2022-09-20T13:58:06;1.77;;;1.08;;
22113;SDS011;11223;49.968;9.062;2022-09-20T14:00:44;2.38;;;0.70;;
22113;SDS011;11223;49.968;9.062;2022-09-20T14:03:16;1.48;;;1.02;;
22113;SDS011;11223;49.968;9.062;2022-09-20T14:05:47;1.42;;;1.02;;
22113;SDS011;11223;49.968;9.062;2022-09-20T14:08:24;1.50;;;0.98;;
22113;SDS011;11223;49.968;9.062;2022-09-20T14:11:06;1.60;;;1.25;;
22113;SDS011;11223;49.968;9.062;2022-09-20T14:13:40;2.90;;;1.00;;
22113;SDS011;11223;49.968;9.062;2022-09-20T14:16:08;1.30;;;1.10;;
22113;SDS011;11223;49.968;9.062;2022-09-20T14:18:35;1.25;;;0.85;;
22113;SDS011;11223;49.968;9.062;2022-09-20T14:21:04;1.58;;;1.27;;
22113;SDS011;11223;49.968;9.062;2022-09-20T14:23:32;1.90;;;1.00;;
22113;SDS011;11223;49.968;9.062;2022-09-20T14:32:09;2.28;;;1.23;;
22113;SDS011;11223;49.968;9.062;2022-09-20T14:37:23;3.03;;;1.60;;
22113;SDS011;11223;49.968;9.062;2022-09-20T14:43:04;2.15;;;1.15;;
22113;SDS011;11223;49.968;9.062;2022-09-20T14:50:32;2.85;;;1.40;;
22113;SDS011;11223;49.968;9.062;2022-09-20T14:56:26;2.60;;;1.90;;
22113;SDS011;11223;49.968;9.062;2022-09-20T14:58:32;2.17;;;1.70;;
22113;SDS011;11223;49.968;9.062;2022-09-20T15:01:22;1.75;;;1.40;;
22113;SDS011;11223;49.968;9.062;2022-09-20T15:03:48;2.30;;;1.70;;
22113;SDS011;11223;49.968;9.062;2022-09-20T15:06:15;3.95;;;2.20;;
22113;SDS011;11223;49.968;9.062;2022-09-20T15:08:40;2.50;;;1.70;;
22113;SDS011;11223;49.968;9.062;2022-09-20T15:11:10;1.80;;;1.70;;
22113;SDS011;11223;49.968;9.062;2022-09-20T15:13:39;1.80;;;1.70;;
22113;SDS011;11223;49.968;9.062;2022-09-20T15:16:05;1.90;;;1.77;;
22113;SDS011;11223;49.968;9.062;2022-09-20T15:18:33;2.35;;;2.15;;
22113;SDS011;11223;49.968;9.062;2022-09-20T15:21:03;2.78;;;1.70;;
22113;SDS011;11223;49.968;9.062;2022-09-20T15:23:30;2.55;;;1.50;;
22113;SDS011;11223;49.968;9.062;2022-09-20T15:25:55;2.73;;;2.17;;
22113;SDS011;11223;49.968;9.062;2022-09-20T15:28:21;2.30;;;1.77;;
22113;SDS011;11223;49.968;9.062;2022-09-20T15:30:48;2.22;;;1.50;;
22113;SDS011;11223;49.968;9.062;2022-09-20T15:33:15;2.03;;;1.52;;
22113;SDS011;11223;49.968;9.062;2022-09-20T15:35:42;1.95;;;1.65;;
22113;SDS011;11223;49.968;9.062;2022-09-20T15:38:08;2.35;;;1.70;;
22113;SDS011;11223;49.968;9.062;2022-09-20T15:40:39;2.20;;;1.70;;
22113;SDS011;11223;49.968;9.062;2022-09-20T15:43:05;1.98;;;1.60;;
22113;SDS011;11223;49.968;9.062;2022-09-20T15:45:33;5.13;;;2.20;;
22113;SDS011;11223;49.968;9.062;2022-09-20T15:47:59;2.42;;;2.03;;
22113;SDS011;11223;49.968;9.062;2022-09-20T15:50:27;2.15;;;1.80;;
22113;SDS011;11223;49.968;9.062;2022-09-20T15:52:53;2.60;;;2.30;;
22113;SDS011;11223;49.968;9.062;2022-09-20T15:55:19;3.10;;;1.70;;
22113;SDS011;11223;49.968;9.062;2022-09-20T15:57:45;3.47;;;1.73;;
22113;SDS011;11223;49.968;9.062;2022-09-20T16:00:12;3.45;;;2.42;;
22113;SDS011;11223;49.968;9.062;2022-09-20T16:02:40;2.85;;;2.40;;
22113;SDS011;11223;49.968;9.062;2022-09-20T16:05:06;4.00;;;2.00;;
22113;SDS011;11223;49.968;9.062;2022-09-20T16:07:33;3.25;;;2.45;;
22113;SDS011;11223;49.968;9.062;2022-09-20T16:09:59;2.97;;;2.63;;
22113;SDS011;11223;49.968;9.062;2022-09-20T16:12:25;2.77;;;2.30;;
22113;SDS011;11223;49.968;9.062;2022-09-20T16:14:51;2.80;;;1.87;;
22113;SDS011;11223;49.968;9.062;2022-09-20T16:17:16;1.87;;;1.77;;
22113;SDS011;11223;49.968;9.062;2022-09-20T16:19:42;3.67;;;2.60;;
22113;SDS011;11223;49.968;9.062;2022-09-20T16:22:12;3.45;;;2.65;;
22113;SDS011;11223;49.968;9.062;2022-09-20T16:24:38;4.90;;;2.10;;
22113;SDS011;11223;49.968;9.062;2022-09-20T16:27:05;2.80;;;2.17;;
22113;SDS011;11223;49.968;9.062;2022-09-20T16:29:31;3.20;;;2.20;;
22113;SDS011;11223;49.968;9.062;2022-09-20T16:31:58;2.45;;;2.13;;
22113;SDS011;11223;49.968;9.062;2022-09-20T16:34:34;4.70;;;2.53;;
22113;SDS011;11223;49.968;9.062;2022-09-20T16:37:01;2.25;;;2.05;;
22113;SDS011;11223;49.968;9.062;2022-09-20T16:39:31;3.35;;;2.35;;
22113;SDS011;11223;49.968;9.062;2022-09-20T16:42:02;6.88;;;1.58;;
22113;SDS011;11223;49.968;9.062;2022-09-20T16:44:30;5.28;;;2.75;;
22113;SDS011;11223;49.968;9.062;2022-09-20T16:46:57;2.72;;;2.30;;
22113;SDS011;11223;49.968;9.062;2022-09-20T16:49:22;2.70;;;2.50;;
22113;SDS011;11223;49.968;9.062;2022-09-20T16:51:50;3.08;;;2.60;;
22113;SDS011;11223;49.968;9.062;2022-09-20T16:54:16;2.77;;;2.57;;
22113;SDS011;11223;49.968;9.062;2022-09-20T16:56:43;4.00;;;2.50;;
22113;SDS011;11223;49.968;9.062;2022-09-20T16:59:18;6.40;;;3.28;;
22113;SDS011;11223;49.968;9.062;2022-09-20T17:01:49;3.17;;;2.88;;
22113;SDS011;11223;49.968;9.062;2022-09-20T17:04:15;2.72;;;2.53;;
22113;SDS011;11223;49.968;9.062;2022-09-20T17:06:42;3.10;;;2.63;;
22113;SDS011;11223;49.968;9.062;2022-09-20T17:09:09;4.15;;;2.75;;
22113;SDS011;11223;49.968;9.062;2022-09-20T17:11:36;2.45;;;2.25;;
22113;SDS011;11223;49.968;9.062;2022-09-20T17:14:04;2.58;;;2.38;;
22113;SDS011;11223;49.968;9.062;2022-09-20T17:16:34;3.45;;;2.50;;
22113;SDS011;11223;49.968;9.062;2022-09-20T17:19:02;4.07;;;2.17;;
22113;SDS011;11223;49.968;9.062;2022-09-20T17:21:32;4.50;;;3.38;;
22113;SDS011;11223;49.968;9.062;2022-09-20T17:24:00;2.75;;;2.55;;
22113;SDS011;11223;49.968;9.062;2022-09-20T17:26:29;3.55;;;2.35;;
22113;SDS011;11223;49.968;9.062;2022-09-20T17:28:57;5.97;;;3.85;;
22113;SDS011;11223;49.968;9.062;2022-09-20T17:31:25;2.72;;;2.53;;
22113;SDS011;11223;49.968;9.062;2022-09-20T17:33:54;3.92;;;2.80;;
22113;SDS011;11223;49.968;9.062;2022-09-20T17:36:24;7.43;;;3.42;;
22113;SDS011;11223;49.968;9.062;2022-09-20T17:38:55;3.55;;;3.25;;
22113;SDS011;11223;49.968;9.062;2022-09-20T17:41:22;4.07;;;3.72;;
22113;SDS011;11223;49.968;9.062;2022-09-20T17:43:51;3.20;;;3.00;;
22113;SDS011;11223;49.968;9.062;2022-09-20T17:46:19;3.05;;;2.15;;
22113;SDS011;11223;49.968;9.062;2022-09-20T17:48:50;3.05;;;2.80;;
22113;SDS011;11223;49.968;9.062;2022-09-20T17:51:18;2.90;;;2.70;;
22113;SDS011;11223;49.968;9.062;2022-09-20T17:53:44;3.83;;;3.05;;
22113;SDS011;11223;49.968;9.062;2022-09-20T17:56:11;5.55;;;5.05;;
22113;SDS011;11223;49.968;9.062;2022-09-20T17:58:38;3.58;;;3.28;;
22113;SDS011;11223;49.968;9.062;2022-09-20T18:01:06;3.53;;;3.13;;
22113;SDS011;11223;49.968;9.062;2022-09-20T18:03:38;4.45;;;3.42;;
22113;SDS011;11223;49.968;9.062;2022-09-20T18:06:13;3.67;;;3.38;;
22113;SDS011;11223;49.968;9.062;2022-09-20T18:08:39;3.53;;;2.90;;
22113;SDS011;11223;49.968;9.062;2022-09-20T18:11:05;3.40;;;3.10;;
22113;SDS011;11223;49.968;9.062;2022-09-20T18:13:32;2.60;;;2.40;;
22113;SDS011;11223;49.968;9.062;2022-09-20T18:15:59;6.20;;;3.20;;
22113;SDS011;11223;49.968;9.062;2022-09-20T18:18:25;3.13;;;2.80;;
22113;SDS011;11223;49.968;9.062;2022-09-20T18:20:51;3.10;;;2.80;;
22113;SDS011;11223;49.968;9.062;2022-09-20T18:23:16;3.10;;;2.90;;
22113;SDS011;11223;49.968;9.062;2022-09-20T18:25:42;2.57;;;2.37;;
22113;SDS011;11223;49.968;9.062;2022-09-20T18:28:26;3.92;;;3.63;;
22113;SDS011;11223;49.968;9.062;2022-09-20T18:31:02;3.28;;;2.97;;
22113;SDS011;11223;49.968;9.062;2022-09-20T18:33:28;3.78;;;3.45;;
22113;SDS011;11223;49.968;9.062;2022-09-20T18:36:02;3.13;;;2.88;;
22113;SDS011;11223;49.968;9.062;2022-09-20T18:38:29;13.48;;;12.07;;
22113;SDS011;11223;49.968;9.062;2022-09-20T18:40:57;20.70;;;17.83;;
22113;SDS011;11223;49.968;9.062;2022-09-20T18:43:24;8.48;;;6.20;;
22113;SDS011;11223;49.968;9.062;2022-09-20T18:45:52;4.55;;;4.18;;
22113;SDS011;11223;49.968;9.062;2022-09-20T18:48:18;5.30;;;4.20;;
22113;SDS011;11223;49.968;9.062;2022-09-20T18:50:56;5.70;;;4.47;;
22113;SDS011;11223;49.968;9.062;2022-09-20T18:53:36;3.78;;;3.38;;
22113;SDS011;11223;49.968;9.062;2022-09-20T18:58:31;3.85;;;3.55;;
22113;SDS011;11223;49.968;9.062;2022-09-20T19:06:47;4.22;;;3.30;;
22113;SDS011;11223;49.968;9.062;2022-09-20T19:09:32;4.20;;;3.80;;
22113;SDS011;11223;49.968;9.062;2022-09-20T19:12:06;3.70;;;3.38;;
22113;SDS011;11223;49.968;9.062;2022-09-20T19:15:02;3.92;;;3.50;;
22113;SDS011;11223;49.968;9.062;2022-09-20T19:25:38;3.22;;;3.00;;
22113;SDS011;11223;49.968;9.062;2022-09-20T19:28:11;3.03;;;2.80;;
22113;SDS011;11223;49.968;9.062;2022-09-20T19:30:39;3.47;;;3.17;;
22113;SDS011;11223;49.968;9.062;2022-09-20T19:33:24;3.45;;;3.25;;
22113;SDS011;11223;49.968;9.062;2022-09-20T19:35:52;3.53;;;3.22;;
22113;SDS011;11223;49.968;9.062;2022-09-20T19:49:44;4.57;;;3.55;;
22113;SDS011;11223;49.968;9.062;2022-09-20T19:52:14;3.10;;;2.90;;
22113;SDS011;11223;49.968;9.062;2022-09-20T19:54:41;4.30;;;3.88;;
22113;SDS011;11223;49.968;9.062;2022-09-20T19:57:14;4.13;;;3.65;;
22113;SDS011;11223;49.968;9.062;2022-09-20T19:59:44;4.47;;;3.97;;
22113;SDS011;11223;49.968;9.062;2022-09-20T20:02:10;3.55;;;2.80;;
22113;SDS011;11223;49.968;9.062;2022-09-20T20:04:36;3.75;;;3.45;;
22113;SDS011;11223;49.968;9.062;2022-09-20T20:07:04;3.83;;;3.50;;
22113;SDS011;11223;49.968;9.062;2022-09-20T20:18:11;4.70;;;4.30;;
22113;SDS011;11223;49.968;9.062;2022-09-20T20:20:46;4.40;;;4.00;;
22113;SDS011;11223;49.968;9.062;2022-09-20T20:26:20;4.30;;;3.90;;
22113;SDS011;11223;49.968;9.062;2022-09-20T20:28:47;4.10;;;3.70;;
22113;SDS011;11223;49.968;9.062;2022-09-20T20:31:13;5.07;;;3.37;;
22113;SDS011;11223;49.968;9.062;2022-09-20T20:33:39;4.10;;;3.70;;
22113;SDS011;11223;49.968;9.062;2022-09-20T20:36:05;4.53;;;4.13;;
22113;SDS011;11223;49.968;9.062;2022-09-20T20:38:35;3.47;;;3.17;;
22113;SDS011;11223;49.968;9.062;2022-09-20T20:41:03;4.10;;;3.70;;
22113;SDS011;11223;49.968;9.062;2022-09-20T20:43:31;5.00;;;4.40;;
22113;SDS011;11223;49.968;9.062;2022-09-20T20:45:59;4.47;;;4.13;;
22113;SDS011;11223;49.968;9.062;2022-09-20T20:48:24;5.03;;;4.27;;
22113;SDS011;11223;49.968;9.062;2022-09-20T20:53:28;5.47;;;4.97;;
22113;SDS011;11223;49.968;9.062;2022-09-20T20:55:59;5.57;;;4.30;;
22113;SDS011;11223;49.968;9.062;2022-09-20T20:58:36;6.07;;;4.53;;
22113;SDS011;11223;49.968;9.062;2022-09-20T21:03:30;4.20;;;3.30;;
22113;SDS011;11223;49.968;9.062;2022-09-20T21:05:56;3.80;;;3.10;;
22113;SDS011;11223;49.968;9.062;2022-09-20T21:08:21;4.00;;;3.50;;
22113;SDS011;11223;49.968;9.062;2022-09-20T21:10:47;4.07;;;3.67;;
22113;SDS011;11223;49.968;9.062;2022-09-20T21:13:12;4.53;;;3.80;;
22113;SDS011;11223;49.968;9.062;2022-09-20T21:15:38;4.20;;;3.80;;
22113;SDS011;11223;49.968;9.062;2022-09-20T21:18:05;3.55;;;3.25;;
22113;SDS011;11223;49.968;9.062;2022-09-20T21:20:30;3.87;;;3.50;;
22113;SDS011;11223;49.968;9.062;2022-09-20T21:22:56;3.73;;;3.43;;
22113;SDS011;11223;49.968;9.062;2022-09-20T21:25:22;5.10;;;3.80;;
22113;SDS011;11223;49.968;9.062;2022-09-20T21:27:47;3.83;;;3.53;;
22113;SDS011;11223;49.968;9.062;2022-09-20T21:30:13;3.23;;;3.00;;
22113;SDS011;11223;49.968;9.062;2022-09-20T21:32:39;4.10;;;3.80;;